Bob Baker Memorial Airport Kiana US
ICAO: PAIK
IATA:
Category: Medium
Scheduled Services:

Elevation: 166 ft
TransAlt. 18000 ft.

Airport Communications:
ANCHORAGE CNTR:119.2
CTAF:122.7

PAIK Zoom In..

Runways:

(A) RW 06 length 3400 ft width 100 ft
---- / hdg 64

(B) RW 24 length 3400 ft width 100 ft
---- / hdg 244

Location; PAIK
Day. 20 / Time. 16.56 Zulu
* Altimeter: 29.75
* Temperature: 02° c. 35.6°f.
* Wind from: 000° Speed 00 kn.
Dewpoint: 01° c.
Visibility: 8 Statute Miles.
Clouds: Overcast 2100 ft.
Conditions: Light Rain.

PAIK 201656Z AUTO 00000KT 8SM -RA OVC021 02/01 A2975 RMK AO2 SLP079 P0001 T00220006 FZRANO


Wind - Calm.

 
 
jpsmedia.com for Web Design SOUNDCLOUD worldairports.se 2018   terms of use